createdAt,value
2023-03-20T00:03:25.590Z,51.40
2023-03-20T00:13:31.517Z,55.50
2023-03-20T00:23:37.349Z,53.20
2023-03-20T00:33:43.417Z,52.70
2023-03-20T00:43:50.783Z,52.30
2023-03-20T00:53:56.725Z,52.40
2023-03-20T01:04:02.967Z,54.20
2023-03-20T01:14:14.755Z,50.70
2023-03-20T01:24:20.525Z,52.70
2023-03-20T01:34:26.180Z,50.40
2023-03-20T01:44:35.000Z,48.40
2023-03-20T01:54:41.995Z,51.00
2023-03-20T02:04:57.028Z,52.90
2023-03-20T02:15:03.772Z,54.10
2023-03-20T02:25:38.143Z,55.70
2023-03-20T02:36:16.527Z,57.10
2023-03-20T02:46:35.898Z,62.70
2023-03-20T02:56:49.992Z,58.50
2023-03-20T03:06:59.392Z,59.30
2023-03-20T03:17:07.649Z,54.00
2023-03-20T03:27:20.716Z,59.60
2023-03-20T03:37:41.003Z,60.80
2023-03-20T03:47:52.391Z,56.60
2023-03-20T03:58:02.777Z,55.20
2023-03-20T04:08:08.967Z,60.70
2023-03-20T04:18:18.216Z,57.70
2023-03-20T04:28:23.857Z,60.90
2023-03-20T04:38:29.624Z,59.60
2023-03-20T04:48:35.730Z,64.30
2023-03-20T04:58:41.408Z,64.10
2023-03-20T05:08:47.081Z,69.20
2023-03-20T05:18:52.733Z,68.70
2023-03-20T05:28:58.454Z,74.40
2023-03-20T05:39:04.226Z,65.00
2023-03-20T05:49:09.926Z,67.80
2023-03-20T05:59:15.710Z,63.50
2023-03-20T06:09:21.679Z,59.70
2023-03-20T06:19:27.715Z,50.90
2023-03-20T06:29:33.535Z,49.20
2023-03-20T06:39:39.233Z,49.80
2023-03-20T06:49:46.061Z,37.60
2023-03-20T06:59:51.961Z,32.20
2023-03-20T07:09:57.660Z,35.20
2023-03-20T07:20:04.079Z,33.80
2023-03-20T07:30:13.308Z,35.10
2023-03-20T07:40:19.924Z,29.80
2023-03-20T07:50:25.681Z,30.90
2023-03-20T08:00:31.726Z,25.90
2023-03-20T08:10:38.106Z,28.30
2023-03-20T08:20:44.076Z,26.90
2023-03-20T08:30:50.375Z,26.30
2023-03-20T08:40:56.250Z,24.80
2023-03-20T08:51:02.169Z,26.20
2023-03-20T09:01:10.751Z,23.90
2023-03-20T09:11:16.516Z,22.70
2023-03-20T09:21:22.388Z,22.80
2023-03-20T09:31:28.195Z,20.30
2023-03-20T09:41:52.899Z,19.60
2023-03-20T10:02:16.614Z,20.60
2023-03-20T10:12:43.887Z,24.40
2023-03-20T10:22:54.468Z,28.70
2023-03-20T10:33:12.502Z,26.60
2023-03-20T10:43:22.275Z,17.00
2023-03-20T10:53:33.677Z,12.60
2023-03-20T11:03:41.382Z,12.80
2023-03-20T11:13:49.356Z,10.60
2023-03-20T11:23:55.741Z,10.00
2023-03-20T11:34:21.532Z,12.00
2023-03-20T11:44:30.436Z,13.70
2023-03-20T11:54:36.076Z,12.40
2023-03-20T12:04:42.972Z,10.60
2023-03-20T12:14:55.890Z,12.40
2023-03-20T12:25:10.692Z,11.40
2023-03-20T12:35:22.320Z,14.00
2023-03-20T12:45:34.647Z,19.20
2023-03-20T12:55:52.707Z,17.30
2023-03-20T13:06:11.377Z,14.70
2023-03-20T13:16:25.950Z,10.60
2023-03-20T13:26:38.934Z,8.70
2023-03-20T13:37:22.517Z,10.30
2023-03-20T13:47:32.334Z,9.20
2023-03-20T13:58:04.756Z,8.30
2023-03-20T14:08:33.835Z,9.10
2023-03-20T14:18:40.196Z,8.60
2023-03-20T14:28:59.735Z,10.10
2023-03-20T14:39:24.013Z,10.40
2023-03-20T14:49:52.858Z,10.30
2023-03-20T14:59:59.963Z,10.10
2023-03-20T15:10:08.638Z,9.50
2023-03-20T15:20:19.224Z,10.70
2023-03-20T15:30:26.807Z,12.70
2023-03-20T15:40:49.742Z,12.10
2023-03-20T15:51:00.169Z,15.10
2023-03-20T16:01:08.763Z,11.90
2023-03-20T16:11:17.811Z,13.10
2023-03-20T16:21:27.120Z,15.50
2023-03-20T16:31:34.954Z,18.80
2023-03-20T16:41:42.141Z,19.40
2023-03-20T16:51:48.846Z,19.70
2023-03-20T17:01:59.694Z,18.00
2023-03-20T17:12:14.655Z,19.20
2023-03-20T17:22:23.360Z,19.20
2023-03-20T17:32:29.668Z,19.20
2023-03-20T17:42:35.589Z,21.30
2023-03-20T17:52:41.358Z,21.20
2023-03-20T18:02:47.435Z,21.30
2023-03-20T18:12:53.269Z,24.40
2023-03-20T18:22:59.184Z,24.10
2023-03-20T18:33:06.214Z,26.90
2023-03-20T18:43:13.584Z,33.80
2023-03-20T18:53:19.686Z,31.90
2023-03-20T19:03:28.594Z,26.00
2023-03-20T19:13:34.484Z,27.90
2023-03-20T19:23:40.475Z,25.30
2023-03-20T19:33:46.876Z,26.10
2023-03-20T19:43:55.536Z,24.40
2023-03-20T19:54:01.616Z,25.10
2023-03-20T20:04:07.488Z,26.30
2023-03-20T20:14:14.746Z,24.90
2023-03-20T20:24:21.229Z,24.80
2023-03-20T20:44:52.864Z,19.50
2023-03-20T20:55:10.900Z,18.10
2023-03-20T21:05:24.871Z,18.30
2023-03-20T21:15:30.762Z,19.70
2023-03-20T21:25:40.993Z,19.80
2023-03-20T21:35:50.087Z,19.10
2023-03-20T21:57:04.581Z,17.70
2023-03-20T22:07:28.803Z,16.80
2023-03-20T22:28:15.655Z,20.60
2023-03-20T22:48:30.440Z,12.80
2023-03-20T22:58:36.032Z,16.10
2023-03-20T23:08:49.393Z,19.10
2023-03-20T23:18:57.896Z,20.10
2023-03-20T23:29:03.650Z,18.50
2023-03-20T23:39:11.841Z,19.40
2023-03-20T23:49:17.821Z,16.80
2023-03-20T23:59:23.625Z,17.80
